Time;durP1;ratioP1;P1;durP2;ratioP2;P2;SDS_P1;SDS_P2;PMS_P1;PMS_P2;Temp;Humidity;BMP_temperature;BMP_pressure;BME280_temperature;BME280_humidity;BME280_pressure;Samples;Min_cycle;Max_cycle;Signal;HPM_P1;HPM_P2
2022/07/01 00:01:40;;;;;;;4.38;2.05;;;;;;;25.60;36.96;101151.28;4991025;28;20026;-88
2022/07/01 00:04:06;;;;;;;4.10;2.05;;;;;;;25.66;36.48;101156.06;4974572;28;20034;-87
2022/07/01 00:06:31;;;;;;;5.32;2.28;;;;;;;25.67;36.60;101162.44;4987561;28;20037;-88
2022/07/01 00:08:57;;;;;;;4.97;1.98;;;;;;;25.59;36.87;101158.09;4990830;28;20113;-89
2022/07/01 00:11:23;;;;;;;4.28;2.05;;;;;;;25.60;37.08;101157.69;4974186;28;20404;-94
2022/07/01 00:13:48;;;;;;;3.72;2.00;;;;;;;25.67;36.96;101154.06;4990736;28;20034;-88
2022/07/01 00:16:14;;;;;;;3.50;2.17;;;;;;;25.71;36.70;101154.84;4990613;28;20122;-88
2022/07/01 00:18:39;;;;;;;3.47;2.13;;;;;;;25.67;37.14;101152.03;4990321;28;20034;-90
2022/07/01 00:21:05;;;;;;;3.97;2.00;;;;;;;25.61;37.11;101148.06;4990660;28;20426;-93
2022/07/01 00:23:31;;;;;;;3.85;2.03;;;;;;;25.57;36.91;101152.91;4974393;28;20034;-87
2022/07/01 00:25:57;;;;;;;5.35;2.22;;;;;;;25.61;36.93;101152.88;4990342;28;20035;-87
2022/07/01 00:28:23;;;;;;;5.82;2.70;;;;;;;25.57;37.37;101152.91;4990134;28;20070;-93
2022/07/01 00:30:48;;;;;;;5.40;3.03;;;;;;;25.54;37.36;101152.91;4990431;28;20065;-88
2022/07/01 00:33:14;;;;;;;11.75;3.50;;;;;;;25.45;37.23;101154.13;4990108;28;20461;-86
2022/07/01 00:35:40;;;;;;;6.93;2.60;;;;;;;25.48;37.26;101151.75;4990031;28;20026;-87
2022/07/01 00:38:05;;;;;;;6.15;2.63;;;;;;;25.37;37.78;101160.94;4990220;28;20496;-88
2022/07/01 00:40:31;;;;;;;3.13;2.05;;;;;;;25.49;37.54;101156.13;4990130;28;20023;-87
2022/07/01 00:42:56;;;;;;;6.82;2.00;;;;;;;25.45;37.49;101156.13;4990097;28;20501;-90
2022/07/01 00:45:22;;;;;;;5.88;2.42;;;;;;;25.46;37.58;101152.91;4989767;28;20023;-88
2022/07/01 00:47:49;;;;;;;4.80;2.13;;;;;;;25.49;37.41;101147.75;4990006;28;20023;-88
2022/07/01 00:50:16;;;;;;;7.47;2.80;;;;;;;25.38;37.83;101158.94;4990623;28;20027;-94
2022/07/01 00:52:44;;;;;;;3.40;2.10;;;;;;;25.36;37.80;101155.78;4993991;28;20037;-93
2022/07/01 00:55:12;;;;;;;8.90;2.88;;;;;;;25.42;37.64;101152.16;4977873;28;20027;-93
2022/07/01 00:57:40;;;;;;;5.07;2.30;;;;;;;25.39;37.62;101147.38;4994090;28;20122;-87
2022/07/01 01:00:08;;;;;;;6.00;2.88;;;;;;;25.48;37.85;101151.75;4977721;28;20493;-88
2022/07/01 01:02:34;;;;;;;4.63;2.55;;;;;;;25.43;37.95;101156.53;4978733;28;20034;-86
2022/07/01 01:05:00;;;;;;;6.85;2.72;;;;;;;25.42;37.87;101163.34;4994043;28;20035;-87
2022/07/01 01:07:26;;;;;;;4.63;2.13;;;;;;;25.46;37.85;101157.72;4977453;28;20508;-93
2022/07/01 01:09:52;;;;;;;4.70;2.28;;;;;;;25.46;38.07;101163.31;4977798;28;20027;-93
2022/07/01 01:12:18;;;;;;;5.95;2.00;;;;;;;25.46;37.83;101154.94;4978794;28;20521;-90
2022/07/01 01:14:45;;;;;;;4.05;1.85;;;;;;;25.51;37.80;101157.31;4993882;28;20118;-89
2022/07/01 01:17:10;;;;;;;5.05;2.20;;;;;;;25.35;38.10;101156.97;4993811;28;20027;-94
2022/07/01 01:19:36;;;;;;;5.93;1.98;;;;;;;25.44;38.04;101160.94;4993513;28;20379;-87
2022/07/01 01:22:02;;;;;;;5.88;1.75;;;;;;;25.53;37.75;101157.69;4993456;28;20029;-87
2022/07/01 01:24:27;;;;;;;3.97;1.80;;;;;;;25.51;37.99;101159.31;4993275;28;20034;-87
2022/07/01 01:26:53;;;;;;;5.30;1.83;;;;;;;25.48;37.91;101166.53;4976985;28;20027;-88
2022/07/01 01:29:18;;;;;;;5.30;1.60;;;;;;;25.52;37.88;101167.28;4992675;28;20097;-88
2022/07/01 01:31:44;;;;;;;2.80;1.55;;;;;;;25.56;37.74;101159.69;4992256;28;20019;-94
2022/07/01 01:34:10;;;;;;;3.72;1.63;;;;;;;25.39;37.91;101166.97;4992209;28;20658;-93
2022/07/01 01:36:36;;;;;;;2.38;1.45;;;;;;;25.44;37.98;101166.53;4992160;28;20027;-91
2022/07/01 01:39:05;;;;;;;3.05;1.25;;;;;;;25.49;37.79;101178.50;4992160;28;20027;-87
2022/07/01 01:41:31;;;;;;;3.63;1.63;;;;;;;25.44;38.05;101171.31;4992086;28;20031;-87
2022/07/01 01:43:56;;;;;;;4.25;1.45;;;;;;;25.50;37.86;101168.91;4976632;28;20045;-88
2022/07/01 01:46:22;;;;;;;3.15;1.42;;;;;;;25.45;38.12;101173.72;4991637;28;20054;-87
2022/07/01 01:48:47;;;;;;;2.67;1.52;;;;;;;25.39;38.15;101178.16;4991510;28;20545;-92
2022/07/01 01:51:13;;;;;;;2.55;1.70;;;;;;;25.37;38.53;101174.13;4976004;28;20031;-93
2022/07/01 01:53:39;;;;;;;2.28;1.40;;;;;;;25.44;38.00;101160.94;4975506;28;20062;-93
2022/07/01 01:56:04;;;;;;;4.35;1.45;;;;;;;25.40;38.36;101171.34;4991437;28;20030;-93
2022/07/01 01:58:30;;;;;;;1.88;1.35;;;;;;;25.41;38.39;101160.97;4991763;28;20026;-92
2022/07/01 02:00:57;;;;;;;3.72;1.83;;;;;;;25.30;38.68;101168.56;4991588;28;20417;-92
2022/07/01 02:03:22;;;;;;;6.53;1.70;;;;;;;25.33;38.50;101171.38;4975924;28;20121;-86
2022/07/01 02:05:48;;;;;;;2.80;1.80;;;;;;;25.32;38.46;101169.78;4991629;28;20113;-92
2022/07/01 02:08:13;;;;;;;4.82;1.40;;;;;;;25.24;38.77;101175.75;4991427;28;20027;-93
2022/07/01 02:10:39;;;;;;;2.72;1.52;;;;;;;25.21;38.73;101176.59;4976370;28;20031;-93
2022/07/01 02:13:05;;;;;;;3.92;1.90;;;;;;;25.21;38.73;101177.38;4991119;28;20038;-93
2022/07/01 02:15:30;;;;;;;2.92;1.63;;;;;;;25.21;38.96;101173.78;4991199;28;20161;-92
2022/07/01 02:17:56;;;;;;;4.90;1.73;;;;;;;25.16;39.23;101170.22;4991711;28;20038;-91
2022/07/01 02:20:22;;;;;;;2.63;1.63;;;;;;;25.16;39.06;101174.97;4991573;28;20172;-87
2022/07/01 02:22:47;;;;;;;3.55;1.48;;;;;;;25.14;39.14;101169.00;4991062;28;20031;-87
2022/07/01 02:25:13;;;;;;;5.18;1.33;;;;;;;25.12;39.21;101172.19;4991234;28;20109;-86
2022/07/01 02:27:38;;;;;;;8.48;1.88;;;;;;;25.10;39.20;101173.81;4944537;28;1357380;-85
2022/07/01 02:30:05;;;;;;;3.15;1.40;;;;;;;25.08;39.28;101179.00;4992599;28;20038;-93
2022/07/01 02:32:31;;;;;;;3.47;1.77;;;;;;;25.02;39.26;101177.78;4991737;28;20169;-88
2022/07/01 02:34:57;;;;;;;3.47;1.52;;;;;;;24.99;39.48;101173.78;4976301;28;20125;-87
2022/07/01 02:37:22;;;;;;;2.83;1.52;;;;;;;25.02;39.44;101177.78;4991913;28;20128;-87
2022/07/01 02:39:48;;;;;;;4.53;1.80;;;;;;;25.07;39.36;101174.59;4992100;28;20037;-87
2022/07/01 02:42:34;;;;;;;3.85;1.75;;;;;;;24.99;39.23;101178.56;4992007;28;20038;-87
2022/07/01 02:45:00;;;;;;;4.68;1.60;;;;;;;24.99;39.31;101178.56;4991928;28;20142;-86
2022/07/01 02:47:32;;;;;;;3.38;1.40;;;;;;;24.98;39.51;101179.78;4992033;28;20035;-92
2022/07/01 02:49:57;;;;;;;3.08;1.83;;;;;;;24.99;39.19;101173.78;4975958;28;20492;-88
2022/07/01 02:52:23;;;;;;;3.15;1.70;;;;;;;25.00;39.25;101188.56;4991813;28;20122;-95
2022/07/01 02:54:48;;;;;;;2.53;1.48;;;;;;;25.01;39.19;101176.97;4975615;28;20035;-93
2022/07/01 02:57:14;;;;;;;4.38;2.13;;;;;;;25.00;39.32;101177.38;4975711;28;20030;-87
2022/07/01 02:59:39;;;;;;;3.95;1.88;;;;;;;24.97;39.26;101180.97;4976622;28;20035;-86
2022/07/01 03:02:06;;;;;;;5.75;2.55;;;;;;;24.99;39.37;101184.16;4976532;28;20030;-87
2022/07/01 03:04:32;;;;;;;3.85;1.77;;;;;;;24.85;39.74;101179.38;4991969;28;20438;-93
2022/07/01 03:06:58;;;;;;;4.00;1.90;;;;;;;24.74;40.03;101184.19;4991328;28;20081;-86
2022/07/01 03:09:24;;;;;;;2.92;1.75;;;;;;;24.70;40.15;101181.38;4991574;28;20031;-92
2022/07/01 03:11:49;;;;;;;6.70;2.05;;;;;;;24.69;40.08;101182.59;4975179;28;20023;-90
2022/07/01 03:14:15;;;;;;;3.70;2.40;;;;;;;24.57;40.22;101183.00;4974981;28;20121;-87
2022/07/01 03:16:41;;;;;;;7.95;2.47;;;;;;;24.64;40.37;101191.38;4976173;28;20035;-85
2022/07/01 03:19:07;;;;;;;5.35;1.92;;;;;;;24.63;40.38;101192.56;4991377;28;20033;-86
2022/07/01 03:21:33;;;;;;;5.15;2.20;;;;;;;24.64;40.28;101196.97;4991386;28;20030;-87
2022/07/01 03:23:58;;;;;;;3.15;1.92;;;;;;;24.67;40.20;101189.78;4990960;28;20121;-87
2022/07/01 03:26:24;;;;;;;7.03;1.95;;;;;;;24.58;40.59;101185.38;4991428;28;20077;-93
2022/07/01 03:28:49;;;;;;;6.63;2.25;;;;;;;24.58;40.44;101190.19;4974122;28;20047;-86
2022/07/01 03:31:15;;;;;;;4.15;1.88;;;;;;;24.61;40.31;101192.97;4974418;28;20042;-86
2022/07/01 03:33:41;;;;;;;8.25;2.50;;;;;;;24.55;40.60;101190.94;4990557;28;20084;-87
2022/07/01 03:36:06;;;;;;;3.92;2.13;;;;;;;24.61;40.03;101195.75;4974461;28;20027;-87
2022/07/01 03:38:32;;;;;;;3.40;1.90;;;;;;;24.67;40.20;101189.78;4990964;28;20402;-91
2022/07/01 03:40:58;;;;;;;4.57;2.10;;;;;;;24.67;40.15;101190.56;4990965;28;20434;-87
2022/07/01 03:43:23;;;;;;;3.80;1.67;;;;;;;24.68;39.95;101194.97;4991004;28;20037;-94
2022/07/01 03:45:49;;;;;;;5.05;2.35;;;;;;;24.63;39.97;101186.97;4990967;28;20073;-86
2022/07/01 03:48:16;;;;;;;4.10;2.00;;;;;;;24.57;40.28;101188.59;4990815;28;20085;-91
2022/07/01 03:50:41;;;;;;;5.28;2.03;;;;;;;24.61;39.87;101190.16;4990985;28;20090;-85
2022/07/01 03:55:51;;;;;;;3.40;2.13;;;;;;;24.51;40.40;101185.38;4975826;28;20053;-86
2022/07/01 03:58:16;;;;;;;6.22;2.70;;;;;;;24.52;40.28;101188.97;4990564;28;20035;-88
2022/07/01 04:00:42;;;;;;;5.55;2.08;;;;;;;24.48;40.13;101188.94;4990724;28;20038;-87
2022/07/01 04:03:07;;;;;;;5.68;2.58;;;;;;;24.48;39.92;101197.31;4990498;28;20038;-87
2022/07/01 04:05:35;;;;;;;7.00;2.22;;;;;;;24.38;40.41;101194.53;4974163;28;20444;-92
2022/07/01 04:08:03;;;;;;;6.65;2.63;;;;;;;24.46;40.23;101191.34;4990039;28;20026;-91
2022/07/01 04:10:32;;;;;;;5.93;2.53;;;;;;;24.48;40.39;101196.53;4974359;28;20045;-91
2022/07/01 04:13:00;;;;;;;11.52;3.30;;;;;;;24.41;40.30;101205.72;4990219;28;20110;-85
2022/07/01 04:15:25;;;;;;;9.00;2.88;;;;;;;24.36;40.74;101197.72;4973589;28;20034;-84
2022/07/01 04:17:51;;;;;;;4.70;2.80;;;;;;;24.44;40.68;101192.94;4974827;28;20105;-92
2022/07/01 04:20:17;;;;;;;8.82;3.47;;;;;;;24.49;40.38;101195.34;4989810;28;20478;-93
2022/07/01 04:22:43;;;;;;;8.88;3.05;;;;;;;24.50;40.69;101194.97;4989442;28;20026;-83
2022/07/01 04:25:09;;;;;;;7.40;2.95;;;;;;;24.51;40.49;101192.97;4975270;28;20037;-85
2022/07/01 04:27:34;;;;;;;6.95;3.30;;;;;;;24.50;40.60;101202.53;4972494;28;20055;-84
2022/07/01 04:30:02;;;;;;;7.22;3.67;;;;;;;24.54;40.46;101204.13;4973699;28;20037;-85
2022/07/01 04:32:31;;;;;;;7.25;2.95;;;;;;;24.55;40.92;101199.34;4973635;28;20043;-84
2022/07/01 04:34:57;;;;;;;6.77;2.87;;;;;;;24.61;40.93;101204.13;4989127;28;20478;-84
2022/07/01 04:37:23;;;;;;;10.73;3.65;;;;;;;24.63;40.93;101200.94;4972616;28;20037;-84
2022/07/01 04:39:49;;;;;;;15.23;4.15;;;;;;;24.68;40.71;101203.34;4988983;28;20031;-84
2022/07/01 04:42:17;;;;;;;8.18;2.88;;;;;;;24.69;40.53;101199.34;4987143;28;20117;-84
2022/07/01 04:44:43;;;;;;;7.07;2.60;;;;;;;24.71;40.84;101196.97;4971769;28;20437;-85
2022/07/01 04:47:08;;;;;;;7.00;2.67;;;;;;;24.73;40.77;101204.94;4988745;28;20030;-84
2022/07/01 04:49:34;;;;;;;7.55;2.88;;;;;;;24.69;40.72;101199.34;4972885;28;20121;-84
2022/07/01 04:52:00;;;;;;;10.57;3.22;;;;;;;24.65;41.24;101203.34;4973971;28;20034;-84
2022/07/01 04:54:25;;;;;;;7.85;3.53;;;;;;;24.72;40.73;101204.16;4988832;28;20081;-84
2022/07/01 04:56:52;;;;;;;12.23;3.45;;;;;;;24.65;41.04;101198.56;4972902;28;20065;-85
2022/07/01 04:59:19;;;;;;;10.10;3.15;;;;;;;24.69;40.90;101204.94;4978630;28;20085;-85
2022/07/01 05:01:45;;;;;;;7.95;3.47;;;;;;;24.72;40.93;101209.75;4982382;28;20478;-85
2022/07/01 05:04:11;;;;;;;6.80;3.30;;;;;;;24.68;41.34;101203.34;4980846;28;20540;-85
2022/07/01 05:06:37;;;;;;;6.90;3.08;;;;;;;24.69;41.09;101206.94;4974887;28;20026;-86
2022/07/01 05:09:04;;;;;;;5.43;2.53;;;;;;;24.75;41.04;101202.56;4980376;28;20117;-86
2022/07/01 05:11:30;;;;;;;5.78;2.30;;;;;;;24.81;40.97;101195.38;4975922;28;20051;-92
2022/07/01 05:13:55;;;;;;;9.73;3.35;;;;;;;24.80;41.03;101200.16;4977184;28;20556;-89
2022/07/01 05:16:21;;;;;;;5.00;2.70;;;;;;;24.83;41.44;101199.34;4986054;28;20389;-85
2022/07/01 05:24:16;;;;;;;8.00;3.30;;;;;;;25.03;41.42;101204.56;4985407;28;20503;-85
2022/07/01 05:26:41;;;;;;;9.77;3.17;;;;;;;25.11;41.20;101208.97;4978436;28;20042;-93
2022/07/01 05:29:07;;;;;;;6.55;3.55;;;;;;;25.11;41.50;101203.38;4985555;28;20441;-87
2022/07/01 05:31:33;;;;;;;6.50;2.92;;;;;;;25.26;41.48;101193.75;4987462;28;20038;-85
2022/07/01 05:33:59;;;;;;;7.38;3.00;;;;;;;25.12;41.79;101204.97;4986490;28;20387;-86
2022/07/01 05:36:24;;;;;;;7.95;2.58;;;;;;;25.20;41.47;101202.94;5003737;28;20492;-86
2022/07/01 05:38:50;;;;;;;4.50;2.92;;;;;;;25.23;41.58;101199.34;4981767;28;20027;-86
2022/07/01 05:41:16;;;;;;;13.52;4.13;;;;;;;25.20;41.41;101203.75;4979120;28;20038;-88
2022/07/01 05:43:42;;;;;;;7.47;2.88;;;;;;;25.19;41.33;101196.56;4976694;28;20074;-88
2022/07/01 05:46:07;;;;;;;6.10;2.60;;;;;;;25.24;41.11;101200.94;4982941;28;20505;-94
2022/07/01 05:48:33;;;;;;;7.88;2.88;;;;;;;25.05;41.67;101208.56;4975569;28;20027;-87
2022/07/01 05:50:59;;;;;;;7.47;2.92;;;;;;;25.07;41.71;101205.34;4996010;28;20050;-88
2022/07/01 05:53:24;;;;;;;6.40;3.10;;;;;;;25.01;41.68;101204.94;4975853;28;20034;-88
2022/07/01 05:55:50;;;;;;;5.28;2.90;;;;;;;25.09;41.38;101206.56;4972341;28;20031;-87
2022/07/01 05:58:16;;;;;;;6.18;2.35;;;;;;;25.11;41.17;101206.16;4990808;28;20026;-92
2022/07/01 06:00:43;;;;;;;5.82;2.50;;;;;;;25.03;41.59;101196.16;4999742;28;20035;-86
2022/07/01 06:03:10;;;;;;;7.82;4.43;;;;;;;24.68;42.20;101208.94;4975544;28;20039;-88
2022/07/01 06:05:36;;;;;;;6.30;2.78;;;;;;;24.71;41.89;101205.34;4991792;28;20077;-92
2022/07/01 06:08:03;;;;;;;4.40;1.92;;;;;;;24.68;41.76;101203.34;4972723;28;20557;-88
2022/07/01 06:10:29;;;;;;;3.38;1.80;;;;;;;24.63;41.73;101195.34;4975304;28;20034;-86
2022/07/01 06:12:54;;;;;;;6.25;2.58;;;;;;;24.56;41.92;101201.75;4976144;28;20097;-87
2022/07/01 06:15:20;;;;;;;5.55;2.25;;;;;;;24.41;41.88;101202.94;4990950;28;20540;-86
2022/07/01 06:17:46;;;;;;;5.22;2.15;;;;;;;24.65;41.19;101197.78;4973219;28;20035;-87
2022/07/01 06:20:12;;;;;;;6.38;2.60;;;;;;;24.71;41.04;101201.72;4975219;28;20054;-90
2022/07/01 06:22:37;;;;;;;5.25;2.88;;;;;;;24.63;41.16;101200.94;4976129;28;20077;-88
2022/07/01 06:25:03;;;;;;;3.65;2.65;;;;;;;24.62;40.83;101199.34;4999888;28;20557;-92
2022/07/01 06:27:29;;;;;;;6.68;1.90;;;;;;;24.53;41.15;101207.31;4975048;28;20047;-89
2022/07/01 06:29:55;;;;;;;4.18;2.25;;;;;;;24.55;41.28;101207.72;4975156;28;20158;-87
2022/07/01 06:32:20;;;;;;;5.15;2.33;;;;;;;24.58;40.90;101204.13;4975067;28;20037;-86
2022/07/01 06:34:46;;;;;;;6.70;2.40;;;;;;;24.50;41.01;101208.13;4971992;28;20549;-89
2022/07/01 06:37:12;;;;;;;6.13;2.00;;;;;;;24.51;41.03;101207.72;4986142;28;20058;-84
2022/07/01 06:39:38;;;;;;;4.60;2.30;;;;;;;24.60;40.66;101202.53;4974711;28;20033;-85
2022/07/01 06:42:04;;;;;;;7.22;2.30;;;;;;;24.67;40.57;101210.13;4976217;28;20034;-89
2022/07/01 06:44:29;;;;;;;7.15;2.00;;;;;;;24.54;40.88;101209.72;4975498;28;20031;-86
2022/07/01 06:46:55;;;;;;;5.93;2.20;;;;;;;24.53;41.04;101208.13;4974500;28;20397;-85
2022/07/01 06:49:20;;;;;;;5.30;2.20;;;;;;;24.52;41.21;101211.31;4989635;28;20089;-85
2022/07/01 06:51:46;;;;;;;3.83;2.10;;;;;;;24.45;41.05;101209.31;4975587;28;20114;-83
2022/07/01 06:54:12;;;;;;;4.90;2.63;;;;;;;24.41;41.05;101204.91;4975719;28;20477;-82
2022/07/01 06:56:38;;;;;;;6.05;2.75;;;;;;;24.41;41.05;101204.91;4970860;28;20027;-82
2022/07/01 06:59:04;;;;;;;3.35;2.35;;;;;;;24.49;41.38;101207.34;4956239;29;20035;-87
2022/07/01 07:01:30;;;;;;;3.80;2.30;;;;;;;24.53;41.39;101208.13;4962517;28;20085;-82
2022/07/01 07:03:55;;;;;;;3.92;2.13;;;;;;;24.66;40.90;101218.91;4975613;28;20074;-85
2022/07/01 07:06:21;;;;;;;5.78;2.58;;;;;;;24.68;40.77;101220.09;4970783;28;20027;-85
2022/07/01 07:08:47;;;;;;;5.95;2.08;;;;;;;24.69;40.91;101213.31;4970907;28;20042;-84
2022/07/01 07:11:14;;;;;;;4.60;2.42;;;;;;;24.72;41.20;101220.91;4955785;28;20034;-76
2022/07/01 07:13:41;;;;;;;7.20;2.50;;;;;;;24.79;41.13;101223.72;4971814;28;20029;-85
2022/07/01 07:16:07;;;;;;;6.35;2.15;;;;;;;24.86;41.31;101220.09;4974325;28;20405;-82
2022/07/01 07:18:33;;;;;;;8.23;2.28;;;;;;;24.87;40.81;101222.53;4972849;28;20023;-80
2022/07/01 07:20:59;;;;;;;4.43;2.38;;;;;;;24.86;41.01;101226.53;4974431;28;20037;-78
2022/07/01 07:23:25;;;;;;;6.13;2.35;;;;;;;24.70;41.34;101217.69;4973815;28;20030;-85
2022/07/01 07:25:50;;;;;;;3.08;1.90;;;;;;;24.69;41.20;101224.50;4974966;28;20030;-81
2022/07/01 07:28:16;;;;;;;5.10;2.08;;;;;;;24.76;41.13;101218.91;4989189;28;20174;-81
2022/07/01 07:30:41;;;;;;;6.20;2.38;;;;;;;24.78;41.43;101222.09;4989568;28;20038;-79
2022/07/01 07:33:07;;;;;;;3.10;2.33;;;;;;;25.00;40.79;101219.31;4974300;28;20033;-85
2022/07/01 07:35:32;;;;;;;5.40;2.35;;;;;;;25.04;41.06;101218.16;4972704;28;20126;-85
2022/07/01 07:37:58;;;;;;;6.10;2.88;;;;;;;25.11;41.12;101218.16;4973509;28;20019;-83
2022/07/01 07:40:24;;;;;;;3.65;1.90;;;;;;;25.11;40.80;101214.56;4988490;28;20418;-85
2022/07/01 07:42:50;;;;;;;5.05;2.13;;;;;;;25.08;40.67;101212.53;4988950;28;20034;-80
2022/07/01 07:45:15;;;;;;;3.65;2.30;;;;;;;25.07;40.82;101216.53;4988699;28;20026;-86
2022/07/01 07:47:43;;;;;;;5.85;2.65;;;;;;;25.16;40.75;101219.72;4989196;28;20473;-84
2022/07/01 07:50:09;;;;;;;5.47;2.30;;;;;;;25.32;40.72;101219.31;4988964;28;20548;-84
2022/07/01 07:52:35;;;;;;;3.88;1.90;;;;;;;25.39;40.75;101210.88;4972570;28;20023;-83
2022/07/01 07:55:00;;;;;;;5.15;2.40;;;;;;;25.39;40.70;101214.50;4990129;28;20500;-86
2022/07/01 07:57:26;;;;;;;4.40;2.08;;;;;;;25.41;40.88;101206.50;4989658;28;20038;-86
2022/07/01 07:59:52;;;;;;;3.78;2.03;;;;;;;25.65;40.46;101198.44;4973395;28;20027;-87
2022/07/01 08:02:17;;;;;;;2.55;1.90;;;;;;;25.62;40.78;101197.25;4989448;28;20035;-88
2022/07/01 08:04:43;;;;;;;5.53;2.30;;;;;;;25.81;40.59;101201.59;4989848;28;20033;-87
2022/07/01 08:07:08;;;;;;;2.92;1.88;;;;;;;25.77;41.07;101200.84;4989797;28;20027;-86
2022/07/01 08:09:34;;;;;;;4.40;2.35;;;;;;;25.91;41.14;101206.34;4989789;28;20034;-86
2022/07/01 08:12:03;;;;;;;4.70;2.00;;;;;;;26.12;40.76;101196.25;4973614;28;20031;-87
2022/07/01 08:14:29;;;;;;;4.63;2.55;;;;;;;26.11;40.75;101200.25;4973489;28;20030;-86
2022/07/01 08:16:55;;;;;;;4.32;2.00;;;;;;;26.16;40.65;101194.25;4974022;28;20037;-86
2022/07/01 08:19:21;;;;;;;3.42;1.98;;;;;;;26.49;40.46;101192.84;4970199;28;20536;-87
2022/07/01 08:21:46;;;;;;;2.88;1.52;;;;;;;26.62;40.25;101188.34;4970467;28;20019;-86
2022/07/01 08:24:12;;;;;;;4.20;2.10;;;;;;;26.49;40.36;101195.66;4984882;28;20031;-86
2022/07/01 08:26:38;;;;;;;5.25;2.30;;;;;;;26.70;39.65;101189.09;4989877;28;20539;-86
2022/07/01 08:29:04;;;;;;;6.63;2.50;;;;;;;26.66;39.93;101191.91;4988433;28;20057;-85
2022/07/01 08:31:31;;;;;;;4.13;1.85;;;;;;;26.72;39.72;101197.88;4959700;28;20023;-85
2022/07/01 08:33:57;;;;;;;2.50;1.90;;;;;;;26.77;39.54;101200.25;4957146;28;20157;-86
2022/07/01 08:36:23;;;;;;;6.40;2.30;;;;;;;26.86;39.56;101196.97;4958408;28;20038;-86
2022/07/01 08:38:49;;;;;;;5.90;2.47;;;;;;;26.89;39.46;101198.94;4958019;28;21275;-87
2022/07/01 08:41:16;;;;;;;3.97;2.30;;;;;;;27.07;38.96;101199.63;4972750;28;20066;-86
2022/07/01 08:43:41;;;;;;;9.68;2.63;;;;;;;27.16;39.22;101188.69;4973222;28;20023;-89
2022/07/01 08:46:07;;;;;;;5.38;1.80;;;;;;;27.21;39.10;101190.25;4972743;28;20033;-85
2022/07/01 08:48:34;;;;;;;4.82;1.90;;;;;;;27.08;38.80;101196.38;4973885;28;20077;-82
2022/07/01 08:51:03;;;;;;;8.32;2.95;;;;;;;27.18;38.78;101199.50;4972150;28;20034;-81
2022/07/01 08:53:31;;;;;;;11.02;2.80;;;;;;;27.25;38.55;101191.00;4973615;28;20038;-81
2022/07/01 08:58:41;;;;;;;6.13;1.85;;;;;;;27.46;38.13;101181.56;4974055;28;20449;-81
2022/07/01 09:01:21;;;;;;;3.42;1.77;;;;;;;27.48;37.56;101177.13;4973719;28;20035;-82
2022/07/01 09:03:48;;;;;;;4.45;2.15;;;;;;;27.68;37.51;101180.13;4972385;28;20505;-82
2022/07/01 09:06:18;;;;;;;5.65;2.42;;;;;;;27.88;37.21;101178.25;4973643;28;20027;-82
2022/07/01 09:08:44;;;;;;;5.68;2.30;;;;;;;27.97;37.11;101185.38;4972311;28;20027;-82
2022/07/01 09:11:25;;;;;;;3.25;1.92;;;;;;;28.00;36.66;101184.53;4972401;28;20034;-83
2022/07/01 09:14:12;;;;;;;7.28;2.55;;;;;;;28.17;36.42;101183.47;4975926;28;20527;-81
2022/07/01 09:16:48;;;;;;;6.18;2.00;;;;;;;28.31;36.26;101177.69;4978621;28;20026;-83
2022/07/01 09:19:15;;;;;;;6.50;2.45;;;;;;;28.36;35.98;101176.41;4976023;28;20051;-85
2022/07/01 09:21:41;;;;;;;7.43;2.03;;;;;;;28.32;35.75;101167.22;4976635;28;20472;-85
2022/07/01 09:24:25;;;;;;;6.72;2.63;;;;;;;28.24;34.97;101174.94;4977198;28;20022;-80
2022/07/01 09:26:57;;;;;;;3.90;2.08;;;;;;;28.24;35.73;101177.75;4977007;28;20034;-83
2022/07/01 09:29:32;;;;;;;3.65;2.25;;;;;;;28.14;35.38;101175.91;4977341;28;20394;-79
2022/07/01 09:32:03;;;;;;;8.13;2.90;;;;;;;27.87;36.20;101175.88;4978781;28;20035;-78
2022/07/01 09:34:34;;;;;;;6.72;2.60;;;;;;;27.86;36.32;101177.09;4996348;28;20366;-78
2022/07/01 09:36:59;;;;;;;2.97;1.83;;;;;;;27.86;36.33;101177.88;4996432;28;20081;-80
2022/07/01 09:39:25;;;;;;;5.50;2.72;;;;;;;27.89;36.29;101167.84;4996348;28;20166;-82
2022/07/01 09:41:54;;;;;;;7.40;2.63;;;;;;;27.85;36.55;101170.69;4996372;28;20031;-80
2022/07/01 09:44:20;;;;;;;6.05;2.20;;;;;;;27.92;36.49;101169.78;4996264;28;20073;-83
2022/07/01 09:46:56;;;;;;;9.52;2.53;;;;;;;27.88;36.42;101172.63;4996255;28;20034;-79
2022/07/01 09:49:23;;;;;;;4.65;1.90;;;;;;;27.93;36.48;101177.00;4991882;28;20050;-79
2022/07/01 09:51:52;;;;;;;9.35;3.15;;;;;;;27.79;36.87;101175.16;4994523;28;20022;-80
2022/07/01 09:54:18;;;;;;;8.55;3.05;;;;;;;27.84;36.82;101166.28;4979200;28;20037;-79
2022/07/01 09:56:44;;;;;;;17.33;3.33;;;;;;;28.02;36.86;101176.47;4974559;28;20031;-79
2022/07/01 09:59:09;;;;;;;5.55;2.10;;;;;;;27.67;37.18;101166.50;4976383;28;20058;-90
2022/07/01 10:01:37;;;;;;;4.00;1.58;;;;;;;27.71;36.50;101168.06;4974937;28;20241;-79
2022/07/01 10:04:06;;;;;;;4.93;1.83;;;;;;;27.82;36.31;101170.75;4989507;28;20030;-79
2022/07/01 10:06:46;;;;;;;6.07;2.67;;;;;;;28.02;35.87;101171.66;4995276;28;20030;-79
2022/07/01 10:09:39;;;;;;;6.28;2.03;;;;;;;28.13;35.07;101165.91;4976196;28;20034;-79
2022/07/01 10:12:11;;;;;;;6.53;2.20;;;;;;;28.30;34.96;101155.63;4975090;28;20125;-79
2022/07/01 10:14:39;;;;;;;4.38;1.55;;;;;;;28.34;34.38;101148.75;4974935;28;20041;-78
2022/07/01 10:17:06;;;;;;;14.02;2.70;;;;;;;28.40;33.89;101146.22;4976266;28;20022;-79
2022/07/01 10:19:33;;;;;;;8.25;1.67;;;;;;;28.65;33.59;101152.25;4983317;28;20022;-79
2022/07/01 10:22:27;;;;;;;3.75;2.03;;;;;;;28.67;33.63;101152.63;4991118;28;20081;-80
2022/07/01 10:24:52;;;;;;;2.70;1.35;;;;;;;28.72;33.25;101148.53;4974664;28;20045;-84
2022/07/01 10:27:23;;;;;;;9.35;2.15;;;;;;;28.65;33.11;101151.47;4995296;28;20042;-79
2022/07/01 10:30:09;;;;;;;4.72;2.63;;;;;;;28.40;33.07;101154.66;4977257;28;20153;-79
2022/07/01 10:32:46;;;;;;;4.22;1.90;;;;;;;28.43;32.95;101154.63;4975873;28;20477;-81
2022/07/01 10:35:12;;;;;;;9.48;2.63;;;;;;;28.43;33.01;101151.00;4976134;28;20486;-78
2022/07/01 10:38:00;;;;;;;10.30;2.78;;;;;;;28.79;32.91;101142.75;4975796;28;20478;-82
2022/07/01 10:40:48;;;;;;;12.23;2.88;;;;;;;28.78;31.88;101143.97;4981202;28;20034;-81
2022/07/01 10:43:34;;;;;;;2.47;1.80;;;;;;;28.35;32.96;101133.47;4995140;28;20045;-80
2022/07/01 10:46:00;;;;;;;5.00;2.05;;;;;;;28.79;32.74;101134.31;4993270;28;20037;-80
2022/07/01 10:48:26;;;;;;;5.78;2.45;;;;;;;28.93;32.04;101128.47;4984270;28;20485;-79
2022/07/01 10:50:53;;;;;;;3.42;2.00;;;;;;;28.93;31.28;101128.47;4975311;28;20026;-78
2022/07/01 10:53:19;;;;;;;5.25;1.83;;;;;;;29.27;30.87;101124.63;4975195;28;20612;-79
2022/07/01 10:55:52;;;;;;;4.22;1.90;;;;;;;29.65;30.57;101119.44;4975281;28;20030;-79
2022/07/01 10:58:20;;;;;;;3.05;1.65;;;;;;;29.94;30.35;101124.44;4974205;28;20030;-79
2022/07/01 11:00:50;;;;;;;3.83;1.75;;;;;;;30.01;30.42;101116.63;4975201;28;20094;-80
2022/07/01 11:03:18;;;;;;;6.78;1.85;;;;;;;30.14;30.42;101122.38;4975263;28;20038;-90
2022/07/01 11:05:46;;;;;;;8.00;2.45;;;;;;;30.33;29.23;101107.41;5008827;28;20102;-86
2022/07/01 11:08:12;;;;;;;14.20;2.38;;;;;;;30.41;29.59;101110.84;4989313;28;20029;-78
2022/07/01 11:10:39;;;;;;;2.95;1.30;;;;;;;30.31;29.13;101109.88;4973796;28;20022;-80
2022/07/01 11:13:05;;;;;;;4.00;1.08;;;;;;;30.38;29.35;101108.94;4974909;28;20481;-78
2022/07/01 11:15:32;;;;;;;8.45;2.35;;;;;;;30.52;29.16;101104.94;4974621;28;20033;-78
2022/07/01 11:17:59;;;;;;;4.10;1.23;;;;;;;30.63;28.98;101106.25;4974382;28;20027;-78
2022/07/01 11:20:30;;;;;;;5.88;1.83;;;;;;;30.58;28.67;101109.59;4974749;28;20117;-78
2022/07/01 11:22:56;;;;;;;7.30;1.77;;;;;;;30.57;28.85;101104.41;4974754;28;20117;-78
2022/07/01 11:25:22;;;;;;;1.75;1.10;;;;;;;30.58;28.37;101105.97;4974590;28;20026;-78
2022/07/01 11:27:50;;;;;;;3.13;0.95;;;;;;;30.36;28.37;101108.56;4973849;28;20097;-77
2022/07/01 11:30:17;;;;;;;5.38;1.60;;;;;;;30.39;27.85;101100.03;4974909;28;20046;-78
2022/07/01 11:32:46;;;;;;;2.65;1.08;;;;;;;30.13;27.36;101112.31;4974882;28;20019;-79
2022/07/01 11:41:04;;;;;;;3.00;1.15;;;;;;;30.43;27.70;101099.13;4974231;28;20046;-79